Sylmar, CA (91342)

4:19 AM PST on February 22, 2017 (GMT -0800)
Sylmar | | Change Station
Active Advisory: Small Craft Advisory

Elev 1340 ft 34.32 °N, 118.46 °W | Updated 44 seconds ago

Partly Cloudy
Partly Cloudy
47.3 °F
Feels Like 47 °F
N
0.0
Wind Variable Wind from NNE
Gusts 0.0 mph

Today
High -- | Low -- °F
--% Chance of Precip.
Yesterday
High -- | Low -- °F
Precip. -- in
Pressure 30.13 in
Visibility 10.0 miles
Clouds Clear
Windchill 47 °F
Dew Point 46 °F
Humidity 97%
Rainfall 0.00 in
Snow Depth Not available.
6:30 AM 5:44 PM
Waning Crescent, 17% visible
METAR KVNY 221151Z 29004KT 10SM CLR 10/09 A3014 RMK AO2 SLP203 70003 T01000094 10122 20089 56015
Pressure 30.13 in
Visibility 10.0 miles
Clouds Clear
Windchill 47 °F
Dew Point 46 °F
Humidity 97%
Rainfall 0.00 in
Snow Depth Not available.
6:30 AM 5:44 PM
Waning Crescent, 17% visible
METAR KVNY 221151Z 29004KT 10SM CLR 10/09 A3014 RMK AO2 SLP203 70003 T01000094 10122 20089 56015

Get Your Daily Forecast Email!

Thanks for signing up!

Be on the lookout for a verification email in your inbox.

You'll start receiving the daily forecast at 8 AM.

×

10-Day Weather Forecast

Almanac

Astronomy

Feb. 22, 2017 Rise Set
Actual Time
Civil Twilight
Nautical Twilight
Astronomical Twilight
Moon
Length of Visible Light
Length of Day
Tomorrow will be .
, % of the Moon is Illuminated

Today's Extremes

State Highs State Lows

Community

WunderPhotos

Upload Photos

1,962,540 photos uploaded!

WunderBlog® & News

Nearby

Air Quality

  Air Quality AQ Index Pollutant
Not available.

Snow Depth

Station Depth Elevation

Earthquake Activity

City Distance Mag. Time & Date
Minimum magnitude displayed is 2.5.

Coastal Water Temperatures

Place Temperature

Stations

Nearby Weather Stations

Station Location Temp. Windchill Dew Point Humidity Wind Precip. Elev Updated Type
                   

Watches & Warnings

Small Craft Advisory
Issued: 2:08 AM PST Feb. 22, 2017 – National Weather Service

... Small Craft Advisory in effect from 2 PM this afternoon to
3 am PST Thursday...

The National Weather Service in Los Angeles/Oxnard has issued a
Small Craft Advisory... which is in effect from 2 PM this
afternoon to 3 am PST Thursday.

See the coastal waters forecast (cwflox) for more details.

Precautionary/preparedness actions...

A Small Craft Advisory means that hazardous sea conditions will
exist for small craft. Inexperienced mariners... especially those
operating smaller vessels should avoid navigating in these
conditions.